Time;durP1;ratioP1;P1;durP2;ratioP2;P2;SDS_P1;SDS_P2;PMS_P1;PMS_P2;Temp;Humidity;BMP_temperature;BMP_pressure;BME280_temperature;BME280_humidity;BME280_pressure;Samples;Min_cycle;Max_cycle;Signal;HPM_P1;HPM_P2
2022/07/13 00:00:19;;;;;;;1.85;1.75;;;12.90;99.90;;;;;;6150804;23;20079;-78
2022/07/13 00:02:47;;;;;;;1.77;1.50;;;12.70;99.90;;;;;;6151433;23;20036;-78
2022/07/13 00:05:15;;;;;;;2.58;1.52;;;12.70;99.90;;;;;;6127689;23;20028;-78
2022/07/13 00:07:43;;;;;;;2.40;2.30;;;12.70;99.90;;;;;;6155340;23;20034;-78
2022/07/13 00:10:11;;;;;;;1.52;1.42;;;12.70;99.90;;;;;;6125734;23;20013;-78
2022/07/13 00:12:39;;;;;;;2.97;1.63;;;12.70;99.90;;;;;;6103485;23;20017;-78
2022/07/13 00:15:08;;;;;;;1.42;1.33;;;12.60;99.90;;;;;;6131372;23;20040;-78
2022/07/13 00:17:36;;;;;;;1.25;1.23;;;12.50;99.90;;;;;;6138011;23;20010;-78
2022/07/13 00:20:04;;;;;;;1.33;1.23;;;12.50;99.90;;;;;;6127751;23;20025;-78
2022/07/13 00:22:32;;;;;;;2.88;1.70;;;12.60;99.90;;;;;;6158651;23;20029;-78
2022/07/13 00:24:59;;;;;;;1.50;1.40;;;12.60;99.90;;;;;;6162130;23;20020;-78
2022/07/13 00:27:27;;;;;;;3.85;2.22;;;12.70;99.90;;;;;;6179430;23;20017;-78
2022/07/13 00:29:55;;;;;;;2.25;2.05;;;12.70;99.90;;;;;;6184854;23;20706;-79
2022/07/13 00:32:23;;;;;;;1.70;1.60;;;12.60;99.90;;;;;;6126492;23;20033;-78
2022/07/13 00:34:51;;;;;;;7.20;1.83;;;12.40;99.90;;;;;;6156019;23;20017;-78
2022/07/13 00:37:18;;;;;;;2.95;1.98;;;12.40;99.90;;;;;;6126475;23;20040;-78
2022/07/13 00:39:46;;;;;;;1.45;1.35;;;12.30;99.90;;;;;;6126930;23;20022;-78
2022/07/13 00:42:14;;;;;;;1.45;1.35;;;12.30;99.90;;;;;;6125676;23;20020;-78
2022/07/13 00:44:46;;;;;;;1.25;1.17;;;12.20;99.90;;;;;;6151129;23;20014;-78
2022/07/13 00:47:15;;;;;;;1.52;1.35;;;12.30;99.90;;;;;;6150067;23;20628;-78
2022/07/13 00:49:43;;;;;;;1.60;1.50;;;12.30;99.90;;;;;;6160600;23;20420;-78
2022/07/13 00:52:12;;;;;;;1.45;1.40;;;12.30;99.90;;;;;;6101244;23;20026;-78
2022/07/13 00:54:42;;;;;;;2.72;1.73;;;12.40;99.90;;;;;;6132155;23;20034;-78
2022/07/13 00:57:33;;;;;;;2.27;2.03;;;12.50;99.90;;;;;;6137631;23;20334;-78
2022/07/13 01:00:44;;;;;;;3.05;1.40;;;12.50;99.90;;;;;;6158494;23;20446;-78
2022/07/13 01:03:12;;;;;;;3.60;2.88;;;12.40;99.90;;;;;;6154370;23;20021;-78
2022/07/13 01:05:40;;;;;;;1.27;1.20;;;12.30;99.90;;;;;;6126802;23;20025;-78
2022/07/13 01:08:08;;;;;;;1.67;1.58;;;12.10;99.90;;;;;;6175111;23;20025;-78
2022/07/13 01:10:38;;;;;;;2.10;1.90;;;12.10;99.90;;;;;;6132097;23;20028;-78
2022/07/13 01:13:13;;;;;;;4.53;2.83;;;12.10;99.90;;;;;;6136659;23;20018;-78
2022/07/13 01:15:41;;;;;;;1.73;1.63;;;12.20;99.90;;;;;;6154436;23;20330;-77
2022/07/13 01:18:14;;;;;;;1.58;1.48;;;12.20;99.90;;;;;;6159972;23;20020;-78
2022/07/13 01:20:43;;;;;;;4.40;2.60;;;12.20;99.90;;;;;;6136481;23;20014;-78
2022/07/13 01:23:19;;;;;;;1.58;1.48;;;12.10;99.90;;;;;;6101851;23;20022;-78
2022/07/13 01:25:48;;;;;;;2.55;1.63;;;11.80;99.90;;;;;;6135219;23;20017;-78
2022/07/13 01:28:16;;;;;;;1.92;1.83;;;11.70;99.90;;;;;;6175453;23;20017;-78
2022/07/13 01:30:44;;;;;;;1.77;1.38;;;11.70;99.90;;;;;;6183356;23;20025;-77
2022/07/13 01:33:12;;;;;;;2.10;1.90;;;11.70;99.90;;;;;;6159361;23;20021;-78
2022/07/13 01:35:41;;;;;;;2.20;2.10;;;11.70;99.90;;;;;;6130383;23;20026;-78
2022/07/13 01:38:10;;;;;;;2.28;1.73;;;11.70;99.90;;;;;;6126805;23;20028;-77
2022/07/13 01:40:41;;;;;;;3.33;2.00;;;11.70;99.90;;;;;;6103143;23;20029;-77
2022/07/13 01:43:13;;;;;;;1.73;1.63;;;11.70;99.90;;;;;;6181263;23;20075;-78
2022/07/13 01:45:44;;;;;;;1.55;1.50;;;11.60;99.90;;;;;;6153597;23;20043;-77
2022/07/13 01:48:12;;;;;;;2.03;1.92;;;11.60;99.90;;;;;;6127367;23;20025;-78
2022/07/13 01:50:40;;;;;;;1.83;1.73;;;11.60;99.90;;;;;;6183665;23;20037;-77
2022/07/13 01:53:07;;;;;;;1.58;1.48;;;11.60;99.90;;;;;;6138889;23;20018;-77
2022/07/13 01:55:35;;;;;;;1.77;1.67;;;11.60;99.90;;;;;;6130470;23;20037;-77
2022/07/13 01:59:18;;;;;;;1.73;1.63;;;11.60;99.90;;;;;;6160014;23;20021;-78
2022/07/13 02:01:46;;;;;;;1.35;1.35;;;11.40;99.90;;;;;;6103893;23;20025;-77
2022/07/13 02:04:14;;;;;;;2.47;1.83;;;11.30;99.90;;;;;;6152483;23;20036;-77
2022/07/13 02:06:42;;;;;;;1.70;1.60;;;11.20;99.90;;;;;;6103766;23;20036;-77
2022/07/13 02:09:09;;;;;;;1.77;1.67;;;11.20;99.90;;;;;;6164555;23;20018;-77
2022/07/13 02:11:37;;;;;;;2.22;2.03;;;11.20;99.90;;;;;;6102430;23;20029;-77
2022/07/13 02:14:05;;;;;;;2.00;1.90;;;11.30;99.90;;;;;;6137018;23;20024;-77
2022/07/13 02:16:33;;;;;;;2.03;1.88;;;11.40;99.90;;;;;;6164442;23;20017;-77
2022/07/13 02:19:01;;;;;;;2.10;1.80;;;11.40;99.90;;;;;;6157669;23;20350;-77
2022/07/13 02:21:31;;;;;;;2.38;2.17;;;11.50;99.90;;;;;;6137771;23;20014;-77
2022/07/13 02:23:59;;;;;;;2.80;2.10;;;11.40;99.90;;;;;;6129564;23;20030;-78
2022/07/13 02:26:26;;;;;;;1.90;1.80;;;11.30;99.90;;;;;;6134915;23;20449;-77
2022/07/13 02:28:54;;;;;;;2.20;1.98;;;11.20;99.90;;;;;;6153708;23;20017;-77
2022/07/13 02:31:22;;;;;;;4.55;1.80;;;11.20;99.90;;;;;;6131710;23;20022;-78
2022/07/13 02:33:50;;;;;;;2.65;2.08;;;11.20;99.90;;;;;;6156426;23;20022;-77
2022/07/13 02:36:19;;;;;;;3.05;2.42;;;11.20;99.90;;;;;;6127258;23;20033;-77
2022/07/13 02:38:49;;;;;;;2.38;2.28;;;11.20;99.90;;;;;;6102058;23;20017;-77
2022/07/13 02:41:17;;;;;;;2.47;2.30;;;11.30;99.90;;;;;;6137445;23;20033;-78
2022/07/13 02:43:48;;;;;;;2.17;2.08;;;11.40;99.90;;;;;;6103362;23;20457;-77
2022/07/13 02:46:16;;;;;;;2.65;2.45;;;11.40;99.90;;;;;;6162254;23;20018;-78
2022/07/13 02:48:43;;;;;;;3.70;2.38;;;11.30;99.90;;;;;;6138041;23;20010;-77
2022/07/13 02:51:11;;;;;;;2.15;1.98;;;11.10;99.90;;;;;;6157843;23;20033;-78
2022/07/13 02:53:39;;;;;;;2.30;2.03;;;11.00;99.90;;;;;;6129559;23;20464;-78
2022/07/13 02:56:07;;;;;;;1.83;1.73;;;11.00;99.90;;;;;;6153542;23;20017;-77
2022/07/13 02:58:36;;;;;;;3.75;2.42;;;11.10;99.90;;;;;;6160976;23;20021;-77
2022/07/13 03:01:04;;;;;;;2.20;2.00;;;11.10;99.90;;;;;;6138030;23;20025;-77
2022/07/13 03:03:31;;;;;;;2.10;1.90;;;11.20;99.90;;;;;;6156301;23;20353;-77
2022/07/13 03:06:02;;;;;;;2.50;2.30;;;11.20;99.90;;;;;;6162784;23;20025;-77
2022/07/13 03:08:29;;;;;;;7.35;2.30;;;11.10;99.90;;;;;;6163590;23;20014;-77
2022/07/13 03:10:58;;;;;;;1.80;1.70;;;11.10;99.90;;;;;;6132170;23;20827;-78
2022/07/13 03:13:27;;;;;;;1.65;1.55;;;11.10;99.90;;;;;;6162800;23;20017;-78
2022/07/13 03:16:08;;;;;;;2.10;1.90;;;11.00;99.90;;;;;;6153488;23;20029;-77
2022/07/13 03:18:48;;;;;;;5.13;1.70;;;11.00;99.90;;;;;;6155443;23;20740;-77
2022/07/13 03:21:16;;;;;;;2.85;2.40;;;11.00;99.90;;;;;;6137752;23;20021;-77
2022/07/13 03:23:43;;;;;;;2.63;2.53;;;11.00;99.90;;;;;;6156173;23;20041;-78
2022/07/13 03:26:12;;;;;;;2.05;1.95;;;11.00;99.90;;;;;;6135519;23;20595;-77
2022/07/13 03:28:40;;;;;;;2.55;2.35;;;11.10;99.90;;;;;;6137504;23;20017;-78
2022/07/13 03:31:08;;;;;;;3.33;2.22;;;11.10;99.90;;;;;;6156256;23;20342;-78
2022/07/13 03:33:36;;;;;;;3.55;2.60;;;11.10;99.90;;;;;;6126609;23;20053;-77
2022/07/13 03:36:05;;;;;;;2.13;1.60;;;11.00;99.90;;;;;;6098083;23;20026;-78
2022/07/13 03:38:33;;;;;;;1.70;1.60;;;11.00;99.90;;;;;;6146432;23;20036;-78
2022/07/13 03:41:05;;;;;;;2.15;1.98;;;11.00;99.90;;;;;;6156061;23;20010;-78
2022/07/13 03:43:33;;;;;;;2.35;1.90;;;10.90;99.90;;;;;;6127366;23;20018;-77
2022/07/13 03:46:01;;;;;;;2.10;1.90;;;10.90;99.90;;;;;;6131748;23;20014;-78
2022/07/13 03:48:29;;;;;;;3.45;2.20;;;10.80;99.90;;;;;;6098302;23;20021;-77
2022/07/13 03:50:57;;;;;;;1.98;1.85;;;10.90;99.90;;;;;;6121015;23;20022;-77
2022/07/13 03:53:26;;;;;;;2.72;2.47;;;10.90;99.90;;;;;;6122675;23;20022;-78
2022/07/13 03:55:54;;;;;;;4.03;3.20;;;11.00;99.90;;;;;;6147860;23;20030;-77
2022/07/13 03:58:22;;;;;;;2.30;2.10;;;11.00;99.90;;;;;;6129582;23;20025;-78
2022/07/13 04:00:50;;;;;;;2.63;2.42;;;11.10;99.90;;;;;;6098569;23;20021;-78
2022/07/13 04:03:19;;;;;;;2.17;1.98;;;11.10;99.90;;;;;;6121917;23;20022;-78
2022/07/13 04:05:48;;;;;;;2.13;1.95;;;11.20;99.90;;;;;;6122625;23;20018;-81
2022/07/13 04:08:17;;;;;;;2.60;2.40;;;11.40;99.90;;;;;;6144922;23;20450;-82
2022/07/13 04:10:45;;;;;;;7.35;3.38;;;11.50;99.90;;;;;;6097117;23;20030;-78
2022/07/13 04:13:16;;;;;;;2.42;1.95;;;11.50;99.90;;;;;;6134013;23;20025;-78
2022/07/13 04:15:43;;;;;;;2.28;2.08;;;11.50;99.90;;;;;;6121771;23;20026;-78
2022/07/13 04:18:14;;;;;;;2.63;2.42;;;11.50;99.90;;;;;;6132173;23;20017;-78
2022/07/13 04:20:47;;;;;;;2.22;2.08;;;11.50;99.90;;;;;;6132655;23;20024;-78
2022/07/13 04:23:15;;;;;;;2.17;1.98;;;11.50;99.90;;;;;;6127057;23;20022;-78
2022/07/13 04:25:44;;;;;;;2.38;2.17;;;11.70;99.90;;;;;;6131658;23;20025;-75
2022/07/13 04:28:11;;;;;;;3.00;2.10;;;11.80;99.90;;;;;;6117098;23;20034;-75
2022/07/13 04:30:40;;;;;;;3.33;2.45;;;12.00;99.90;;;;;;6148070;23;20041;-75
2022/07/13 04:33:11;;;;;;;2.33;2.22;;;12.10;99.90;;;;;;6138667;23;20025;-75
2022/07/13 04:35:39;;;;;;;2.20;2.00;;;12.20;99.90;;;;;;6097850;23;20030;-74
2022/07/13 04:38:07;;;;;;;2.13;2.03;;;12.40;99.90;;;;;;6159604;23;20014;-78
2022/07/13 04:40:35;;;;;;;2.83;2.42;;;12.50;99.90;;;;;;6126884;23;20590;-77
2022/07/13 04:43:04;;;;;;;2.85;2.17;;;12.70;99.90;;;;;;6124505;23;20028;-78
2022/07/13 04:45:32;;;;;;;3.08;2.78;;;12.80;99.90;;;;;;6136344;23;20013;-79
2022/07/13 04:48:00;;;;;;;2.30;2.10;;;12.90;99.90;;;;;;6154103;23;20041;-80
2022/07/13 04:50:31;;;;;;;2.65;2.45;;;13.00;99.90;;;;;;6159471;23;20330;-80
2022/07/13 04:53:00;;;;;;;2.10;2.00;;;13.10;99.90;;;;;;6125590;23;20024;-79
2022/07/13 04:55:28;;;;;;;2.20;2.00;;;13.30;99.90;;;;;;6126011;23;20037;-79
2022/07/13 04:57:57;;;;;;;2.35;2.15;;;13.40;99.90;;;;;;6134576;23;20476;-79
2022/07/13 05:00:26;;;;;;;3.05;1.60;;;13.50;99.90;;;;;;6151782;23;20021;-79
2022/07/13 05:02:54;;;;;;;2.35;2.15;;;13.70;99.90;;;;;;6149769;23;20570;-79
2022/07/13 05:05:23;;;;;;;2.40;2.13;;;13.80;99.90;;;;;;6162295;23;20017;-79
2022/07/13 05:07:50;;;;;;;3.30;1.60;;;13.90;99.90;;;;;;6129192;23;20033;-79
2022/07/13 05:10:18;;;;;;;4.40;2.38;;;14.00;99.90;;;;;;6160613;23;20025;-80
2022/07/13 05:12:54;;;;;;;2.05;1.83;;;14.20;99.90;;;;;;6139293;23;20028;-79
2022/07/13 05:15:43;;;;;;;2.10;1.98;;;14.30;99.90;;;;;;6151819;23;20552;-80
2022/07/13 05:18:11;;;;;;;2.85;2.65;;;14.50;99.90;;;;;;6129140;23;20028;-79
2022/07/13 05:20:39;;;;;;;2.33;2.17;;;14.70;99.90;;;;;;6163904;23;20020;-79
2022/07/13 05:23:10;;;;;;;4.60;2.67;;;14.80;99.90;;;;;;6127837;23;20022;-78
2022/07/13 05:25:45;;;;;;;2.10;1.90;;;14.90;99.90;;;;;;6103818;23;20041;-79
2022/07/13 05:28:13;;;;;;;4.13;2.40;;;15.10;99.90;;;;;;6153014;23;20036;-78
2022/07/13 05:30:41;;;;;;;3.03;2.72;;;15.20;99.90;;;;;;6135186;23;20504;-79
2022/07/13 05:33:09;;;;;;;1.85;1.63;;;15.40;99.90;;;;;;6153194;23;20036;-79
2022/07/13 05:35:37;;;;;;;2.80;1.60;;;15.50;99.90;;;;;;6127216;23;20033;-79
2022/07/13 05:38:05;;;;;;;1.83;1.50;;;15.70;99.90;;;;;;6136325;23;20014;-79
2022/07/13 05:40:34;;;;;;;3.20;3.00;;;15.80;99.90;;;;;;6152788;23;20022;-79
2022/07/13 05:43:08;;;;;;;1.60;1.50;;;15.90;99.90;;;;;;6132449;23;20377;-79
2022/07/13 05:45:36;;;;;;;1.92;1.50;;;16.10;99.90;;;;;;6138221;23;20017;-79
2022/07/13 05:48:05;;;;;;;2.20;1.67;;;16.20;99.90;;;;;;6154139;23;20034;-79
2022/07/13 05:50:39;;;;;;;1.67;1.55;;;16.30;99.90;;;;;;6159896;23;20033;-79
2022/07/13 05:53:07;;;;;;;1.83;1.73;;;16.40;99.90;;;;;;6137905;23;20437;-79
2022/07/13 05:55:36;;;;;;;1.67;1.58;;;16.50;99.90;;;;;;6153741;23;20639;-79
2022/07/13 05:58:03;;;;;;;1.77;1.67;;;16.60;99.90;;;;;;6162991;23;20326;-79
2022/07/13 06:00:31;;;;;;;29.80;3.60;;;16.80;99.90;;;;;;6128714;23;20017;-79
2022/07/13 06:02:59;;;;;;;3.97;1.98;;;16.80;99.90;;;;;;6150955;23;20030;-79
2022/07/13 06:05:27;;;;;;;2.95;1.88;;;16.90;99.90;;;;;;6136707;23;20021;-79
2022/07/13 06:07:55;;;;;;;2.85;1.92;;;17.10;99.90;;;;;;6154201;23;20026;-79
2022/07/13 06:10:23;;;;;;;1.73;1.60;;;17.20;99.90;;;;;;6181544;23;20025;-79
2022/07/13 06:12:51;;;;;;;1.70;1.60;;;17.20;99.90;;;;;;6164767;23;20010;-80
2022/07/13 06:15:20;;;;;;;1.90;1.23;;;17.20;99.90;;;;;;6102469;23;20037;-80
2022/07/13 06:17:48;;;;;;;1.63;1.52;;;17.20;99.90;;;;;;6188701;23;20009;-80
2022/07/13 06:20:15;;;;;;;17.95;2.75;;;17.30;99.90;;;;;;6152765;23;20018;-80
2022/07/13 06:23:09;;;;;;;1.20;1.20;;;17.50;99.90;;;;;;6161376;23;20017;-81
2022/07/13 06:25:31;;;;;;;1.15;1.15;;;17.60;99.90;;;;;;6127633;23;20330;-80
2022/07/13 06:27:59;;;;;;;1.30;1.20;;;17.70;99.90;;;;;;6103503;23;20040;-81
2022/07/13 06:30:29;;;;;;;3.50;2.63;;;17.90;99.90;;;;;;6134226;23;20029;-80
2022/07/13 06:32:57;;;;;;;1.95;1.38;;;17.90;99.90;;;;;;6130635;23;20026;-81
2022/07/13 06:35:25;;;;;;;1.27;1.17;;;18.10;99.90;;;;;;6073327;23;20343;-80
2022/07/13 06:37:53;;;;;;;2.25;1.30;;;18.20;99.90;;;;;;6067857;23;20029;-84
2022/07/13 06:40:25;;;;;;;1.25;1.15;;;18.30;99.90;;;;;;6092724;23;20030;-81
2022/07/13 06:42:55;;;;;;;1.73;1.33;;;18.40;99.90;;;;;;6045073;23;20037;-82
2022/07/13 06:45:25;;;;;;;8.55;1.33;;;18.60;99.90;;;;;;6080672;23;20443;-81
2022/07/13 06:47:55;;;;;;;1.42;1.30;;;18.70;99.90;;;;;;6045275;23;20509;-80
2022/07/13 06:50:23;;;;;;;2.53;1.35;;;18.70;99.90;;;;;;6124866;23;20022;-80
2022/07/13 06:52:51;;;;;;;1.38;1.27;;;18.90;99.90;;;;;;6079539;23;20022;-81
2022/07/13 06:55:19;;;;;;;2.60;1.67;;;19.00;99.90;;;;;;6068111;23;20027;-80
2022/07/13 06:57:47;;;;;;;1.27;1.15;;;19.10;99.90;;;;;;6068740;23;20014;-81
2022/07/13 07:00:15;;;;;;;1.40;1.13;;;19.10;99.90;;;;;;6094723;23;20033;-80
2022/07/13 07:02:43;;;;;;;3.63;1.50;;;19.10;99.90;;;;;;6098641;23;20025;-80
2022/07/13 07:05:11;;;;;;;1.05;0.90;;;19.10;99.90;;;;;;6079240;23;20014;-80
2022/07/13 07:07:40;;;;;;;1.83;1.50;;;19.20;99.90;;;;;;6072013;23;20224;-80
2022/07/13 07:10:09;;;;;;;2.00;1.25;;;19.30;99.90;;;;;;6124311;23;20010;-81
2022/07/13 07:12:38;;;;;;;1.73;1.63;;;19.40;99.90;;;;;;6105630;23;20014;-81
2022/07/13 07:15:07;;;;;;;5.30;1.52;;;19.50;99.90;;;;;;6121761;23;20022;-81
2022/07/13 07:17:43;;;;;;;1.40;1.30;;;19.70;99.90;;;;;;6093403;23;20015;-81
2022/07/13 07:20:11;;;;;;;1.70;1.60;;;19.90;99.90;;;;;;6116620;23;20023;-81
2022/07/13 07:22:39;;;;;;;5.70;1.30;;;20.00;99.90;;;;;;6124930;23;20064;-81
2022/07/13 07:25:08;;;;;;;5.13;1.30;;;20.10;99.90;;;;;;6102794;23;20311;-81
2022/07/13 07:27:36;;;;;;;1.95;1.40;;;20.30;99.90;;;;;;6072831;23;20458;-86
2022/07/13 07:30:06;;;;;;;0.98;0.90;;;20.50;99.90;;;;;;6116767;23;20018;-85
2022/07/13 07:32:34;;;;;;;2.75;1.38;;;20.60;99.90;;;;;;6052612;23;20026;-85
2022/07/13 07:35:02;;;;;;;1.13;1.02;;;20.70;99.90;;;;;;6144907;23;20025;-81
2022/07/13 07:37:30;;;;;;;1.15;1.13;;;20.80;99.90;;;;;;6130802;23;20025;-78
2022/07/13 07:39:58;;;;;;;1.25;1.15;;;20.80;99.90;;;;;;6123946;23;20029;-79
2022/07/13 07:42:26;;;;;;;1.35;1.25;;;20.70;99.90;;;;;;6130424;23;20045;-79
2022/07/13 07:44:58;;;;;;;3.08;1.15;;;20.90;99.90;;;;;;6134311;23;20013;-79
2022/07/13 07:47:26;;;;;;;1.20;0.93;;;21.00;99.90;;;;;;6126752;23;20030;-79
2022/07/13 07:49:54;;;;;;;2.28;1.83;;;21.00;99.90;;;;;;6132741;23;20018;-79
2022/07/13 07:52:22;;;;;;;2.50;1.08;;;20.90;99.90;;;;;;6133138;23;20021;-79
2022/07/13 07:55:10;;;;;;;1.90;1.00;;;21.00;99.90;;;;;;6098489;23;20041;-79
2022/07/13 07:57:52;;;;;;;1.40;1.30;;;21.30;99.90;;;;;;6107747;23;20014;-79
2022/07/13 08:00:20;;;;;;;8.40;1.35;;;21.50;99.90;;;;;;6122889;23;20037;-79
2022/07/13 08:02:48;;;;;;;0.80;0.80;;;21.70;99.90;;;;;;6129339;23;20029;-79
2022/07/13 08:05:17;;;;;;;1.38;1.27;;;21.80;99.90;;;;;;6132820;23;20010;-79
2022/07/13 08:07:46;;;;;;;1.50;1.40;;;21.70;99.90;;;;;;6146599;23;20022;-79
2022/07/13 08:10:14;;;;;;;1.77;1.67;;;21.60;99.90;;;;;;6105458;23;20041;-79
2022/07/13 08:12:58;;;;;;;1.38;1.27;;;21.70;99.90;;;;;;6134739;23;20021;-79
2022/07/13 08:15:26;;;;;;;;;;;21.80;99.90;;;;;;6129045;23;20051;-79
2022/07/13 08:17:55;;;;;;;1.27;1.27;;;21.90;99.90;;;;;;6074927;23;19923;-79
2022/07/13 08:20:23;;;;;;;1.98;1.80;;;21.90;99.90;;;;;;6108520;23;20029;-79
2022/07/13 08:22:52;;;;;;;1.23;1.05;;;22.10;99.90;;;;;;6148139;23;20022;-80
2022/07/13 08:25:21;;;;;;;3.00;0.90;;;22.50;99.90;;;;;;6134781;23;20017;-79
2022/07/13 08:27:49;;;;;;;0.90;0.90;;;22.60;99.90;;;;;;6124893;23;20037;-79
2022/07/13 08:30:18;;;;;;;1.48;1.38;;;22.60;99.90;;;;;;6104797;23;20018;-79
2022/07/13 08:32:46;;;;;;;0.93;0.88;;;22.80;99.90;;;;;;6131577;23;20018;-79
2022/07/13 08:41:10;;;;;;;0.82;0.82;;;22.30;99.90;;;;;;6087556;23;20023;-78
2022/07/13 08:43:42;;;;;;;1.27;1.00;;;22.50;99.90;;;;;;6039536;23;20058;-78
2022/07/13 08:46:10;;;;;;;3.88;1.30;;;22.70;99.90;;;;;;6098114;23;20014;-79
2022/07/13 08:48:41;;;;;;;3.00;1.48;;;22.60;99.90;;;;;;6133850;23;20009;-79
2022/07/13 08:51:09;;;;;;;1.10;1.00;;;22.70;99.90;;;;;;6128260;23;20026;-79
2022/07/13 08:53:37;;;;;;;1.35;1.25;;;22.80;99.90;;;;;;6133631;23;20025;-79
2022/07/13 08:56:06;;;;;;;0.80;0.80;;;22.90;99.90;;;;;;6171257;23;20037;-79
2022/07/13 08:58:36;;;;;;;1.20;1.10;;;23.00;99.90;;;;;;6130185;23;20036;-79
2022/07/13 09:01:05;;;;;;;1.20;1.00;;;23.00;99.90;;;;;;6133613;23;20014;-78
2022/07/13 09:03:34;;;;;;;0.93;0.90;;;23.00;99.90;;;;;;6097215;23;20014;-79
2022/07/13 09:06:08;;;;;;;1.20;1.20;;;22.90;99.90;;;;;;6109041;23;20018;-85
2022/07/13 09:08:42;;;;;;;0.90;0.90;;;23.10;99.90;;;;;;6102115;23;20040;-80
2022/07/13 09:11:12;;;;;;;0.90;0.90;;;23.00;99.90;;;;;;6154162;23;20024;-80
2022/07/13 09:13:45;;;;;;;4.93;2.03;;;23.00;99.90;;;;;;6160309;23;20025;-80
2022/07/13 09:16:26;;;;;;;2.75;1.15;;;23.10;99.90;;;;;;6149146;23;20491;-80
2022/07/13 09:18:57;;;;;;;1.63;1.52;;;23.10;99.90;;;;;;6155747;23;20030;-81
2022/07/13 09:21:30;;;;;;;1.00;0.90;;;23.00;99.90;;;;;;6126396;23;20040;-80
2022/07/13 09:24:03;;;;;;;4.13;1.83;;;23.20;99.90;;;;;;6126967;23;20346;-80
2022/07/13 09:26:45;;;;;;;1.17;0.70;;;23.40;99.90;;;;;;6125041;23;20032;-81
2022/07/13 09:29:14;;;;;;;3.75;0.80;;;23.50;99.90;;;;;;6126021;23;20017;-81
2022/07/13 09:31:58;;;;;;;0.90;0.90;;;23.60;99.90;;;;;;6125623;23;20022;-81
2022/07/13 09:34:50;;;;;;;1.80;0.75;;;23.80;99.90;;;;;;6097837;23;20018;-81
2022/07/13 09:37:24;;;;;;;0.77;0.77;;;24.10;99.90;;;;;;6157102;23;20442;-81
2022/07/13 09:39:57;;;;;;;0.68;0.68;;;24.20;99.90;;;;;;6124906;23;20037;-80
2022/07/13 09:42:33;;;;;;;1.20;1.17;;;24.10;99.90;;;;;;6154286;23;20022;-80
2022/07/13 09:47:55;;;;;;;1.63;1.08;;;24.10;99.90;;;;;;6125052;23;20358;-80
2022/07/13 09:50:43;;;;;;;1.42;0.88;;;24.10;99.90;;;;;;6121126;23;20342;-81
2022/07/13 09:53:31;;;;;;;3.03;0.80;;;24.20;99.90;;;;;;6125147;23;20033;-80
2022/07/13 09:56:01;;;;;;;1.52;1.17;;;24.30;99.90;;;;;;6173217;23;20029;-80
2022/07/13 09:58:39;;;;;;;2.22;1.10;;;24.20;99.90;;;;;;6074500;23;20029;-80
2022/07/13 10:01:07;;;;;;;1.10;0.95;;;24.40;99.90;;;;;;6148982;23;20014;-81
2022/07/13 10:03:36;;;;;;;1.25;1.00;;;24.60;99.90;;;;;;6100231;23;20481;-80
2022/07/13 10:06:14;;;;;;;1.90;1.45;;;24.70;99.90;;;;;;6123506;23;20014;-82
2022/07/13 10:08:43;;;;;;;1.63;1.52;;;24.70;99.90;;;;;;6158794;23;20037;-81
2022/07/13 10:11:11;;;;;;;1.00;0.95;;;24.70;99.90;;;;;;6130038;23;20791;-81
2022/07/13 10:14:11;;;;;;;1.45;0.95;;;24.70;99.90;;;;;;6135898;23;20046;-80
2022/07/13 10:16:39;;;;;;;0.60;0.55;;;24.70;99.90;;;;;;6155165;23;20037;-81
2022/07/13 10:19:09;;;;;;;2.20;1.77;;;24.70;99.60;;;;;;6177495;23;20030;-80
2022/07/13 10:22:11;;;;;;;1.30;1.05;;;24.60;99.90;;;;;;6135880;23;20010;-79
2022/07/13 10:24:52;;;;;;;1.02;0.80;;;24.60;99.90;;;;;;6108355;23;20029;-83
2022/07/13 10:27:26;;;;;;;1.00;1.00;;;24.70;99.70;;;;;;6123404;23;20026;-81
2022/07/13 10:29:58;;;;;;;0.80;0.80;;;24.80;99.90;;;;;;6158356;23;20010;-81
2022/07/13 10:32:28;;;;;;;0.90;0.90;;;24.80;99.90;;;;;;6137151;23;20026;-81
2022/07/13 10:35:02;;;;;;;0.60;0.60;;;24.60;99.90;;;;;;6160716;23;20018;-81
2022/07/13 10:37:55;;;;;;;1.20;1.08;;;24.60;99.80;;;;;;6129311;23;20342;-80
2022/07/13 10:40:32;;;;;;;0.70;0.70;;;24.70;99.90;;;;;;6186243;23;20445;-80
2022/07/13 10:43:04;;;;;;;0.80;0.80;;;24.70;99.60;;;;;;6129266;23;20055;-81
2022/07/13 10:45:38;;;;;;;1.23;1.08;;;24.70;99.90;;;;;;6152581;23;20018;-80
2022/07/13 10:48:25;;;;;;;1.15;0.90;;;24.70;97.40;;;;;;6127545;23;20599;-82
2022/07/13 10:50:54;;;;;;;0.60;0.60;;;24.90;98.30;;;;;;6128380;23;20033;-82
2022/07/13 10:53:37;;;;;;;0.70;0.70;;;25.00;97.00;;;;;;6165407;23;20449;-81
2022/07/13 10:56:25;;;;;;;0.70;0.70;;;24.90;95.40;;;;;;6152096;23;20515;-82
2022/07/13 10:58:53;;;;;;;8.82;1.40;;;24.70;97.90;;;;;;6133374;23;20022;-80
2022/07/13 11:01:45;;;;;;;1.60;0.55;;;24.60;97.50;;;;;;6164460;23;20020;-80
2022/07/13 11:04:15;;;;;;;1.17;0.70;;;24.70;97.70;;;;;;6127455;23;20022;-80
2022/07/13 11:07:04;;;;;;;0.70;0.70;;;24.90;95.70;;;;;;6133461;23;20354;-81
2022/07/13 11:09:32;;;;;;;0.70;0.70;;;25.00;97.60;;;;;;6160446;23;20024;-81
2022/07/13 11:12:00;;;;;;;1.88;1.00;;;25.10;97.70;;;;;;6154755;23;20045;-81
2022/07/13 11:14:41;;;;;;;0.88;0.82;;;25.20;97.80;;;;;;6160900;23;20070;-81
2022/07/13 11:17:23;;;;;;;0.80;0.80;;;25.40;96.30;;;;;;6186657;23;20021;-80
2022/07/13 11:19:54;;;;;;;3.70;0.80;;;25.30;91.90;;;;;;6151901;23;20029;-81
2022/07/13 11:25:39;;;;;;;0.82;0.82;;;25.20;96.00;;;;;;6103344;23;20017;-81
2022/07/13 11:28:54;;;;;;;0.50;0.50;;;25.30;97.00;;;;;;6124491;23;20029;-83
2022/07/13 11:31:36;;;;;;;2.15;1.30;;;25.40;94.70;;;;;;6131754;23;20029;-83
2022/07/13 11:34:06;;;;;;;0.60;0.50;;;25.30;94.40;;;;;;6130035;23;20022;-82
2022/07/13 11:37:01;;;;;;;0.80;0.80;;;25.30;92.20;;;;;;6105006;23;20017;-84
2022/07/13 11:39:55;;;;;;;0.90;0.70;;;25.30;95.30;;;;;;6174420;23;20029;-86
2022/07/13 11:42:32;;;;;;;0.50;0.50;;;25.40;96.50;;;;;;6093599;23;20314;-84
2022/07/13 11:45:24;;;;;;;0.55;0.55;;;25.30;93.20;;;;;;6130002;23;20737;-83
2022/07/13 11:48:16;;;;;;;0.65;0.63;;;25.30;94.40;;;;;;6073296;23;20040;-83
2022/07/13 11:50:50;;;;;;;0.65;0.65;;;25.30;95.60;;;;;;6127727;23;20040;-83
2022/07/13 11:53:33;;;;;;;8.20;1.27;;;25.20;93.60;;;;;;6105498;23;20022;-82
2022/07/13 11:56:31;;;;;;;0.60;0.60;;;25.00;93.10;;;;;;6114267;23;20049;-82
2022/07/13 12:00:13;;;;;;;0.45;0.45;;;25.20;92.30;;;;;;6127821;23;20014;-84
2022/07/13 12:03:06;;;;;;;0.80;0.65;;;25.60;93.50;;;;;;6162891;23;20020;-81
2022/07/13 12:06:11;;;;;;;0.60;0.60;;;25.80;94.20;;;;;;6187902;23;20017;-86
2022/07/13 12:10:19;;;;;;;0.70;0.70;;;25.80;94.60;;;;;;6098949;23;20021;-83
2022/07/13 12:13:44;;;;;;;3.25;1.00;;;26.00;96.30;;;;;;6104360;23;20021;-82
2022/07/13 12:16:28;;;;;;;1.52;0.60;;;26.10;98.40;;;;;;6129722;23;20029;-83
2022/07/13 12:21:28;;;;;;;;;;;;;;;;;;;;;
2022/07/13 12:34:32;;;;;;;0.77;0.77;;;25.70;95.10;;;;;;6060213;23;20235;-83
2022/07/13 12:38:05;;;;;;;1.42;0.77;;;25.70;93.90;;;;;;6039148;23;20030;-84
2022/07/13 12:40:54;;;;;;;1.70;0.70;;;25.70;94.20;;;;;;6038058;23;20054;-87
2022/07/13 12:52:52;;;;;;;1.55;0.68;;;26.10;90.50;;;;;;6148602;23;20029;-84
2022/07/13 13:07:47;;;;;;;5.78;0.52;;;26.20;82.70;;;;;;6083194;23;20034;-81
2022/07/13 13:10:46;;;;;;;0.70;0.45;;;26.30;90.10;;;;;;6123096;23;20022;-86
2022/07/13 13:33:24;;;;;;;0.32;0.32;;;26.40;88.50;;;;;;6203801;22;20028;-87
2022/07/13 13:37:45;;;;;;;;;;;;;;;;;;;;;
2022/07/13 13:41:11;;;;;;;0.43;0.43;;;26.70;85.00;;;;;;6151190;23;20467;-84
2022/07/13 13:48:25;;;;;;;0.55;0.55;;;26.80;75.30;;;;;;6090454;23;20033;-84
2022/07/13 13:51:20;;;;;;;1.10;0.50;;;26.90;77.60;;;;;;6074975;23;20037;-86
2022/07/13 13:54:23;;;;;;;0.40;0.40;;;26.80;72.50;;;;;;6034184;23;20022;-85
2022/07/13 13:57:28;;;;;;;8.50;0.90;;;26.80;69.50;;;;;;6106302;23;20087;-85
2022/07/13 14:10:11;;;;;;;0.63;0.50;;;27.30;77.40;;;;;;6058139;23;20006;-85
2022/07/13 14:42:04;;;;;;;1.83;0.28;;;27.40;73.90;;;;;;6211527;23;20028;-83
2022/07/13 14:50:39;;;;;;;0.50;0.50;;;27.50;75.80;;;;;;6052759;23;20033;-83
2022/07/13 15:00:11;;;;;;;;;;;;;;;;;;;;;
2022/07/13 15:14:34;;;;;;;;;;;;;;;;;;;;;
2022/07/13 15:25:29;;;;;;;0.57;0.57;;;27.80;78.90;;;;;;6211079;23;20028;-84
2022/07/13 15:32:55;;;;;;;7.22;0.65;;;28.10;68.30;;;;;;6112824;23;20032;-84
2022/07/13 15:46:27;;;;;;;0.30;0.30;;;27.40;80.50;;;;;;5883356;24;20037;-85
2022/07/13 15:49:16;;;;;;;1.95;0.50;;;27.20;79.80;;;;;;5899006;24;20032;-84
2022/07/13 15:51:55;;;;;;;0.70;0.55;;;27.10;78.50;;;;;;5913645;24;20035;-84
2022/07/13 15:54:56;;;;;;;2.95;0.50;;;26.90;75.40;;;;;;5906128;24;20036;-84
2022/07/13 16:00:52;;;;;;;0.55;0.55;;;26.90;81.70;;;;;;6008099;23;19965;-82
2022/07/13 16:03:32;;;;;;;0.50;0.43;;;26.80;73.60;;;;;;6135686;23;20040;-82
2022/07/13 16:06:03;;;;;;;0.60;0.60;;;26.70;74.70;;;;;;6158529;23;20020;-80
2022/07/13 16:08:32;;;;;;;0.60;0.60;;;26.70;75.20;;;;;;6181967;23;20020;-82